Time;durP1;ratioP1;P1;durP2;ratioP2;P2;SDS_P1;SDS_P2;PMS_P1;PMS_P2;Temp;Humidity;BMP_temperature;BMP_pressure;BME280_temperature;BME280_humidity;BME280_pressure;Samples;Min_cycle;Max_cycle;Signal;HPM_P1;HPM_P2
2021/11/07 00:00:28;;;;;;;7.22;3.45;;;10.90;99.90;;;;;;4118491;28;20035;-73
2021/11/07 00:04:48;;;;;;;7.15;3.78;;;10.80;99.90;;;;;;4123148;28;20671;-74
2021/11/07 00:07:08;;;;;;;9.30;3.83;;;10.70;99.90;;;;;;4122140;28;20030;-73
2021/11/07 00:13:29;;;;;;;6.85;3.58;;;10.70;99.90;;;;;;4121971;28;20034;-73
2021/11/07 00:15:30;;;;;;;6.20;3.72;;;10.70;99.90;;;;;;4120757;28;20034;-74
2021/11/07 00:17:33;;;;;;;8.15;3.42;;;10.60;99.90;;;;;;4123123;28;20442;-73
2021/11/07 00:22:00;;;;;;;7.30;4.35;;;10.60;99.90;;;;;;4122003;28;20034;-73
2021/11/07 00:24:08;;;;;;;6.63;3.80;;;10.60;99.90;;;;;;4119810;28;20046;-73
2021/11/07 00:28:59;;;;;;;7.53;3.88;;;10.40;99.90;;;;;;4051921;29;20036;-73
2021/11/07 00:33:41;;;;;;;6.18;3.50;;;10.40;99.90;;;;;;4065699;28;20046;-73
2021/11/07 00:38:06;;;;;;;6.78;3.67;;;10.40;99.90;;;;;;4119243;28;20042;-73
2021/11/07 00:40:25;;;;;;;6.55;4.03;;;10.40;99.90;;;;;;4121051;28;20026;-73
2021/11/07 00:42:37;;;;;;;10.98;4.75;;;10.40;99.90;;;;;;4117943;28;20033;-73
2021/11/07 00:48:49;;;;;;;7.70;4.10;;;10.30;99.90;;;;;;4120940;28;20029;-73
2021/11/07 00:51:23;;;;;;;7.22;4.15;;;10.30;99.90;;;;;;4115869;28;20093;-73
2021/11/07 00:57:41;;;;;;;12.45;3.85;;;10.20;99.90;;;;;;4118151;28;20022;-73
2021/11/07 01:02:05;;;;;;;7.13;4.30;;;10.20;99.90;;;;;;4119798;28;20038;-73
2021/11/07 01:04:10;;;;;;;8.43;4.30;;;10.10;99.90;;;;;;4120291;28;20042;-74
2021/11/07 01:06:11;;;;;;;6.75;4.22;;;10.10;99.90;;;;;;4118388;28;20092;-73
2021/11/07 01:08:13;;;;;;;5.40;3.58;;;10.00;99.90;;;;;;4118835;28;21236;-73
2021/11/07 01:10:14;;;;;;;7.38;3.95;;;10.00;99.90;;;;;;4120225;28;20394;-73
2021/11/07 01:12:15;;;;;;;5.63;3.53;;;10.00;99.90;;;;;;4118636;28;20046;-73
2021/11/07 01:14:16;;;;;;;6.88;4.07;;;10.00;99.90;;;;;;4118304;28;20042;-73
2021/11/07 01:16:17;;;;;;;8.07;4.22;;;10.00;99.90;;;;;;4118439;28;20046;-74
2021/11/07 01:18:18;;;;;;;3.38;2.85;;;10.00;99.90;;;;;;4120181;28;20046;-73
2021/11/07 01:20:22;;;;;;;8.40;3.60;;;10.00;99.90;;;;;;4117477;28;20038;-74
2021/11/07 01:22:34;;;;;;;10.88;3.65;;;10.00;99.90;;;;;;4119610;28;20038;-74
2021/11/07 01:24:38;;;;;;;6.73;3.17;;;10.00;99.90;;;;;;4117358;28;20104;-74
2021/11/07 01:26:44;;;;;;;6.30;3.80;;;10.00;99.90;;;;;;4119576;28;20278;-73
2021/11/07 01:28:47;;;;;;;8.35;3.75;;;10.00;99.90;;;;;;4120104;28;20042;-74
2021/11/07 01:30:52;;;;;;;3.55;3.00;;;10.00;99.90;;;;;;4117272;28;20039;-74
2021/11/07 01:33:05;;;;;;;7.88;4.22;;;9.90;99.90;;;;;;4119527;28;20180;-74
2021/11/07 01:37:19;;;;;;;5.40;3.63;;;9.90;99.90;;;;;;4119683;28;20285;-74
2021/11/07 01:39:35;;;;;;;7.53;3.40;;;9.90;99.90;;;;;;4118321;28;20612;-74
2021/11/07 01:43:39;;;;;;;5.95;3.03;;;9.90;99.90;;;;;;4119875;28;20058;-73
2021/11/07 01:45:45;;;;;;;4.07;3.00;;;9.90;99.90;;;;;;4117819;28;20042;-74
2021/11/07 01:47:50;;;;;;;5.13;3.10;;;9.90;99.90;;;;;;4119319;28;20053;-73
2021/11/07 01:49:51;;;;;;;4.95;3.13;;;9.90;99.90;;;;;;4118921;28;20069;-73
2021/11/07 01:52:00;;;;;;;5.10;2.85;;;9.90;99.90;;;;;;4115486;28;20038;-73
2021/11/07 01:54:20;;;;;;;4.72;2.75;;;10.00;99.90;;;;;;4118545;28;20034;-73
2021/11/07 01:56:20;;;;;;;5.75;3.13;;;9.90;99.90;;;;;;4119262;28;20089;-73
2021/11/07 01:58:21;;;;;;;7.88;2.85;;;9.90;99.90;;;;;;4119286;28;20441;-73
2021/11/07 02:00:26;;;;;;;3.60;2.50;;;9.90;99.90;;;;;;4116776;28;20058;-74
2021/11/07 02:02:30;;;;;;;5.35;2.70;;;9.90;99.90;;;;;;4115199;28;20038;-73
2021/11/07 02:04:31;;;;;;;5.53;2.90;;;9.90;99.90;;;;;;4118390;28;20026;-73
2021/11/07 02:06:31;;;;;;;7.25;2.97;;;9.90;99.90;;;;;;4118884;28;20030;-73
2021/11/07 02:08:32;;;;;;;4.72;3.05;;;9.90;99.90;;;;;;4113157;28;20542;-73
2021/11/07 02:10:36;;;;;;;6.80;3.08;;;9.90;99.90;;;;;;4117551;28;20136;-74
2021/11/07 02:12:40;;;;;;;4.18;2.78;;;9.90;99.90;;;;;;4120605;28;20049;-73
2021/11/07 02:14:41;;;;;;;3.78;2.58;;;10.00;99.90;;;;;;4118429;28;20065;-73
2021/11/07 02:16:42;;;;;;;4.88;2.78;;;10.00;99.90;;;;;;4106334;28;20133;-73
2021/11/07 02:18:43;;;;;;;4.45;2.40;;;9.90;99.90;;;;;;4124195;28;20043;-73
2021/11/07 02:20:45;;;;;;;3.92;2.50;;;10.00;99.90;;;;;;4121919;28;20089;-74
2021/11/07 02:22:46;;;;;;;9.38;2.88;;;10.00;99.90;;;;;;4123016;28;20104;-73
2021/11/07 02:24:46;;;;;;;3.78;2.75;;;10.00;99.90;;;;;;4122461;28;20660;-73
2021/11/07 02:26:54;;;;;;;4.53;2.80;;;10.00;99.90;;;;;;4121092;28;20144;-74
2021/11/07 02:28:55;;;;;;;4.38;2.78;;;10.00;99.90;;;;;;4118367;28;20544;-73
2021/11/07 02:30:56;;;;;;;6.63;3.10;;;10.00;99.90;;;;;;4120104;28;20038;-73
2021/11/07 02:32:59;;;;;;;3.85;2.83;;;10.00;99.90;;;;;;4122312;28;20041;-74
2021/11/07 02:35:00;;;;;;;3.05;2.53;;;10.00;99.90;;;;;;4121837;28;20034;-74
2021/11/07 02:37:02;;;;;;;5.38;3.25;;;10.00;99.90;;;;;;4122589;28;20049;-73
2021/11/07 02:39:04;;;;;;;4.18;3.15;;;10.00;99.90;;;;;;4122448;28;20084;-73
2021/11/07 02:41:07;;;;;;;3.95;2.72;;;10.00;99.90;;;;;;4120312;28;20038;-73
2021/11/07 02:43:08;;;;;;;4.30;2.85;;;10.00;99.90;;;;;;4122467;28;20061;-74
2021/11/07 02:45:12;;;;;;;5.13;2.78;;;10.00;99.90;;;;;;4122204;28;20034;-73
2021/11/07 02:47:15;;;;;;;2.92;2.50;;;9.90;99.90;;;;;;4120238;28;20030;-73
2021/11/07 02:49:16;;;;;;;5.30;3.30;;;10.00;99.90;;;;;;4117688;28;20170;-74
2021/11/07 02:51:23;;;;;;;5.60;2.72;;;10.00;99.90;;;;;;4119893;28;20792;-74
2021/11/07 02:53:23;;;;;;;4.03;2.75;;;10.00;99.90;;;;;;4121736;28;20490;-74
2021/11/07 02:55:25;;;;;;;3.60;2.50;;;10.00;99.90;;;;;;4121185;28;20034;-74
2021/11/07 02:57:25;;;;;;;8.33;3.20;;;10.00;99.90;;;;;;4122027;28;20030;-74
2021/11/07 02:59:31;;;;;;;5.85;2.60;;;10.00;99.90;;;;;;4120746;28;20066;-73
2021/11/07 03:01:32;;;;;;;9.65;3.33;;;10.00;99.90;;;;;;4119227;28;20026;-74
2021/11/07 03:03:33;;;;;;;5.65;2.72;;;10.00;99.90;;;;;;4121769;28;20807;-73
2021/11/07 03:05:35;;;;;;;3.72;2.65;;;9.90;99.90;;;;;;4104347;28;20031;-74
2021/11/07 03:07:35;;;;;;;3.47;2.72;;;10.00;99.90;;;;;;4121517;28;20046;-74
2021/11/07 03:09:38;;;;;;;4.43;3.00;;;10.00;99.90;;;;;;4121900;28;20117;-74
2021/11/07 03:11:41;;;;;;;;;;;10.00;99.90;;;;;;4121968;28;20457;-73
2021/11/07 03:13:42;;;;;;;3.33;2.55;;;10.10;99.90;;;;;;4122088;28;19910;-74
2021/11/07 03:15:42;;;;;;;3.85;3.00;;;10.10;99.90;;;;;;4121600;28;20045;-74
2021/11/07 03:17:43;;;;;;;4.20;2.92;;;10.10;99.90;;;;;;4120309;28;20042;-74
2021/11/07 03:19:43;;;;;;;4.50;3.00;;;10.20;99.90;;;;;;4121941;28;20156;-74
2021/11/07 03:21:44;;;;;;;4.55;2.65;;;10.10;99.90;;;;;;4121512;28;20031;-74
2021/11/07 03:23:50;;;;;;;5.72;2.97;;;10.10;99.90;;;;;;4120522;28;20071;-74
2021/11/07 03:26:00;;;;;;;3.70;2.88;;;10.10;99.90;;;;;;4120997;28;20177;-74
2021/11/07 03:28:03;;;;;;;7.68;2.67;;;10.10;99.90;;;;;;4119237;28;20048;-73
2021/11/07 03:30:17;;;;;;;4.05;2.65;;;10.20;99.90;;;;;;4116949;28;20034;-74
2021/11/07 03:32:23;;;;;;;4.30;3.03;;;10.20;99.90;;;;;;4120495;28;20506;-74
2021/11/07 03:36:25;;;;;;;4.80;2.88;;;10.20;99.90;;;;;;4121265;28;20129;-74
2021/11/07 03:38:25;;;;;;;4.18;3.00;;;10.20;99.90;;;;;;4121780;28;20446;-73
2021/11/07 03:40:27;;;;;;;6.78;3.40;;;10.20;99.90;;;;;;4120623;28;20030;-74
2021/11/07 03:42:27;;;;;;;4.63;2.75;;;10.20;99.90;;;;;;4121416;28;20556;-74
2021/11/07 03:44:28;;;;;;;4.45;3.13;;;10.20;99.90;;;;;;4119968;28;20039;-74
2021/11/07 03:46:29;;;;;;;6.57;3.05;;;10.20;99.90;;;;;;4121342;28;20604;-74
2021/11/07 03:48:30;;;;;;;6.63;2.92;;;10.30;99.90;;;;;;4120990;28;20045;-74
2021/11/07 03:50:32;;;;;;;5.88;3.10;;;10.30;99.90;;;;;;4118849;28;20116;-74
2021/11/07 03:52:33;;;;;;;5.28;3.30;;;10.30;99.90;;;;;;4119888;28;20037;-74
2021/11/07 03:54:35;;;;;;;7.65;3.20;;;10.30;99.90;;;;;;4120514;28;20081;-74
2021/11/07 03:56:36;;;;;;;4.93;2.77;;;10.30;99.90;;;;;;4103274;28;20038;-74
2021/11/07 03:58:36;;;;;;;6.95;3.38;;;10.30;99.90;;;;;;4121328;28;20324;-74
2021/11/07 04:00:37;;;;;;;8.15;3.28;;;10.30;99.90;;;;;;4119205;28;20077;-73
2021/11/07 04:02:39;;;;;;;4.70;3.10;;;10.30;99.90;;;;;;4119376;28;20038;-74
2021/11/07 04:04:39;;;;;;;5.53;3.17;;;10.30;99.90;;;;;;4121148;28;20045;-73
2021/11/07 04:06:40;;;;;;;4.45;3.10;;;10.30;99.90;;;;;;4120880;28;20138;-74
2021/11/07 04:08:41;;;;;;;3.75;2.83;;;10.30;99.90;;;;;;4120925;28;20027;-74
2021/11/07 04:10:42;;;;;;;5.28;3.13;;;10.30;99.90;;;;;;4119617;28;20118;-74
2021/11/07 04:12:43;;;;;;;6.97;3.75;;;10.40;99.90;;;;;;4121008;28;20040;-74
2021/11/07 04:14:44;;;;;;;7.40;3.60;;;10.40;99.90;;;;;;4121127;28;20560;-73
2021/11/07 04:16:44;;;;;;;5.75;3.42;;;10.30;99.90;;;;;;4120310;28;20034;-74
2021/11/07 04:18:45;;;;;;;6.88;4.05;;;10.30;99.90;;;;;;4121126;28;20034;-73
2021/11/07 04:20:46;;;;;;;3.45;2.72;;;10.40;99.90;;;;;;4118964;28;20054;-74
2021/11/07 04:22:47;;;;;;;5.88;3.30;;;10.40;99.90;;;;;;4118743;28;20336;-74
2021/11/07 04:24:48;;;;;;;4.10;3.45;;;10.40;99.90;;;;;;4120552;28;20045;-74
2021/11/07 04:26:48;;;;;;;6.68;3.60;;;10.40;99.90;;;;;;4118597;28;20462;-74
2021/11/07 04:28:50;;;;;;;4.45;3.13;;;10.40;99.90;;;;;;4119060;28;21191;-74
2021/11/07 04:30:50;;;;;;;4.20;3.13;;;10.40;99.90;;;;;;4118563;28;20090;-74
2021/11/07 04:32:51;;;;;;;3.95;2.90;;;10.50;99.90;;;;;;4118798;28;20030;-74
2021/11/07 04:34:51;;;;;;;4.45;3.30;;;10.50;99.90;;;;;;4118057;28;20034;-74
2021/11/07 04:36:53;;;;;;;5.25;3.30;;;10.50;99.90;;;;;;4120532;28;20432;-73
2021/11/07 04:38:54;;;;;;;5.15;3.75;;;10.50;99.90;;;;;;4121305;28;20027;-74
2021/11/07 04:40:54;;;;;;;8.55;4.35;;;10.60;99.90;;;;;;4119679;28;20689;-74
2021/11/07 04:42:56;;;;;;;6.20;3.33;;;10.50;99.90;;;;;;4120705;28;20650;-74
2021/11/07 04:44:57;;;;;;;6.13;4.00;;;10.50;99.90;;;;;;4120768;28;20030;-73
2021/11/07 04:46:58;;;;;;;6.22;3.92;;;10.60;99.90;;;;;;4119999;28;20657;-74
2021/11/07 04:48:59;;;;;;;6.93;4.57;;;10.60;99.90;;;;;;4120130;28;20026;-74
2021/11/07 04:51:00;;;;;;;5.47;3.58;;;10.60;99.90;;;;;;4120058;28;20104;-74
2021/11/07 04:53:04;;;;;;;8.00;4.57;;;10.60;99.90;;;;;;4118556;28;20304;-74
2021/11/07 04:55:06;;;;;;;6.50;4.70;;;10.60;99.90;;;;;;4118641;28;20185;-74
2021/11/07 04:57:06;;;;;;;8.20;5.10;;;10.70;99.90;;;;;;4120332;28;20042;-74
2021/11/07 04:59:09;;;;;;;7.97;4.97;;;10.70;99.90;;;;;;4119004;28;20038;-74
2021/11/07 05:01:09;;;;;;;6.60;4.28;;;10.70;99.90;;;;;;4119787;28;20034;-74
2021/11/07 05:03:11;;;;;;;7.20;4.55;;;10.70;99.90;;;;;;4119573;28;20034;-74
2021/11/07 05:05:12;;;;;;;8.88;4.72;;;10.70;99.90;;;;;;4120790;28;20033;-74
2021/11/07 05:07:12;;;;;;;7.93;4.85;;;10.70;99.90;;;;;;4120289;28;20034;-74
2021/11/07 05:09:13;;;;;;;8.60;5.22;;;10.70;99.90;;;;;;4118866;28;20500;-74
2021/11/07 05:11:14;;;;;;;7.45;4.82;;;10.70;99.90;;;;;;4119473;28;20035;-74
2021/11/07 05:13:14;;;;;;;6.97;4.55;;;10.80;99.90;;;;;;4118421;28;21645;-74
2021/11/07 05:15:16;;;;;;;8.57;4.75;;;10.70;99.90;;;;;;4118619;28;20041;-74
2021/11/07 05:17:16;;;;;;;8.07;4.85;;;10.80;99.90;;;;;;4118157;28;20136;-74
2021/11/07 05:19:17;;;;;;;8.77;5.03;;;10.70;99.90;;;;;;4119855;28;20475;-74
2021/11/07 05:21:17;;;;;;;7.53;4.80;;;10.70;99.90;;;;;;4118016;28;20592;-74
2021/11/07 05:23:18;;;;;;;10.10;4.97;;;10.70;99.90;;;;;;4120094;28;20413;-74
2021/11/07 05:25:19;;;;;;;11.80;4.72;;;10.70;99.90;;;;;;4118366;28;20101;-74
2021/11/07 05:27:19;;;;;;;8.00;5.05;;;10.80;99.90;;;;;;4117863;28;20100;-74
2021/11/07 05:29:20;;;;;;;7.85;4.60;;;10.70;99.90;;;;;;4120429;28;20050;-74
2021/11/07 05:31:21;;;;;;;6.57;4.45;;;10.70;99.90;;;;;;4118010;28;20089;-74
2021/11/07 05:33:22;;;;;;;9.48;4.68;;;10.70;99.90;;;;;;4119811;28;20550;-74
2021/11/07 05:35:23;;;;;;;10.25;5.18;;;10.70;99.90;;;;;;4118549;28;20030;-74
2021/11/07 05:37:24;;;;;;;7.22;5.15;;;10.70;99.90;;;;;;4119090;28;20050;-75
2021/11/07 05:39:25;;;;;;;9.35;4.93;;;10.70;99.90;;;;;;4116452;28;20671;-74
2021/11/07 05:41:26;;;;;;;6.78;4.90;;;10.70;99.90;;;;;;4119231;28;20030;-74
2021/11/07 05:43:27;;;;;;;8.52;5.10;;;10.70;99.90;;;;;;4117707;28;20085;-74
2021/11/07 05:45:27;;;;;;;6.72;4.70;;;10.70;99.90;;;;;;4119439;28;20121;-74
2021/11/07 05:47:28;;;;;;;9.10;4.93;;;10.70;99.90;;;;;;4119525;28;20692;-74
2021/11/07 05:49:28;;;;;;;6.90;5.10;;;10.80;99.90;;;;;;4117439;28;20035;-74
2021/11/07 05:51:29;;;;;;;8.40;5.00;;;10.80;99.90;;;;;;4119281;28;20038;-74
2021/11/07 05:53:30;;;;;;;6.70;4.68;;;10.80;99.90;;;;;;4119640;28;20038;-74
2021/11/07 05:55:31;;;;;;;10.43;4.30;;;10.80;99.90;;;;;;4117893;28;20050;-74
2021/11/07 05:57:32;;;;;;;5.40;3.53;;;10.80;99.90;;;;;;4118823;28;20046;-74
2021/11/07 05:59:33;;;;;;;5.63;3.88;;;10.80;99.90;;;;;;4119363;28;20783;-74
2021/11/07 06:01:36;;;;;;;6.35;4.07;;;10.90;99.90;;;;;;4118850;28;20141;-74
2021/11/07 06:03:37;;;;;;;5.70;4.18;;;10.90;99.90;;;;;;4119292;28;20419;-74
2021/11/07 06:05:37;;;;;;;5.90;4.10;;;10.90;99.90;;;;;;4119184;28;20065;-74
2021/11/07 06:07:38;;;;;;;6.68;3.92;;;10.90;99.90;;;;;;4118964;28;20112;-74
2021/11/07 06:09:39;;;;;;;7.28;4.32;;;10.90;99.90;;;;;;4119039;28;20039;-74
2021/11/07 06:11:40;;;;;;;6.88;4.20;;;10.90;99.90;;;;;;4116665;28;20074;-74
2021/11/07 06:13:40;;;;;;;7.18;4.25;;;10.90;99.90;;;;;;4119739;28;20035;-74
2021/11/07 06:15:41;;;;;;;7.82;4.43;;;10.90;99.90;;;;;;4123157;28;20465;-74
2021/11/07 06:17:42;;;;;;;7.30;4.43;;;10.90;99.90;;;;;;4120163;28;20059;-74
2021/11/07 06:19:42;;;;;;;8.18;5.28;;;10.90;99.90;;;;;;4122719;28;20495;-74
2021/11/07 06:21:46;;;;;;;9.30;5.70;;;10.90;99.90;;;;;;4122237;28;20046;-74
2021/11/07 06:23:47;;;;;;;;;;;10.90;99.90;;;;;;4118112;28;20038;-74
2021/11/07 06:25:48;;;;;;;8.10;5.13;;;10.90;99.90;;;;;;4124957;28;19910;-74
2021/11/07 06:27:49;;;;;;;6.70;4.93;;;10.90;99.90;;;;;;4122138;28;20122;-74
2021/11/07 06:29:50;;;;;;;8.90;5.70;;;11.00;99.90;;;;;;4124410;28;20650;-74
2021/11/07 06:31:52;;;;;;;9.25;5.10;;;10.90;99.90;;;;;;4125382;28;20053;-74
2021/11/07 06:33:53;;;;;;;10.33;5.00;;;11.00;99.90;;;;;;4121483;28;20077;-74
2021/11/07 06:35:53;;;;;;;9.77;5.00;;;11.00;99.90;;;;;;4119800;28;20038;-74
2021/11/07 06:37:55;;;;;;;8.15;5.00;;;11.00;99.90;;;;;;4127342;28;20035;-74
2021/11/07 06:39:56;;;;;;;6.60;4.95;;;11.00;99.90;;;;;;4125625;28;20037;-74
2021/11/07 06:41:57;;;;;;;8.55;4.85;;;11.00;99.90;;;;;;4118689;28;20141;-74
2021/11/07 06:43:59;;;;;;;7.85;4.82;;;11.00;99.90;;;;;;4121050;28;20097;-76
2021/11/07 06:45:59;;;;;;;8.18;5.00;;;11.00;99.90;;;;;;4118318;28;20498;-76
2021/11/07 06:48:01;;;;;;;5.97;4.68;;;11.00;99.90;;;;;;4121236;28;20084;-76
2021/11/07 06:50:03;;;;;;;10.30;5.03;;;11.00;99.90;;;;;;4122361;28;20510;-72
2021/11/07 06:52:04;;;;;;;7.03;4.15;;;11.00;99.90;;;;;;4122776;28;20053;-72
2021/11/07 06:54:06;;;;;;;5.28;3.70;;;11.00;99.90;;;;;;4123028;28;20041;-73
2021/11/07 06:56:07;;;;;;;7.63;3.85;;;11.10;99.90;;;;;;4123154;28;20093;-73
2021/11/07 06:58:08;;;;;;;5.07;3.65;;;11.00;99.90;;;;;;4122530;28;20446;-73
2021/11/07 07:00:13;;;;;;;5.03;3.85;;;11.10;99.90;;;;;;4128012;28;20034;-73
2021/11/07 07:02:14;;;;;;;6.38;4.38;;;11.00;99.90;;;;;;4126747;28;20693;-73
2021/11/07 07:04:15;;;;;;;7.57;4.80;;;11.10;99.90;;;;;;4128061;28;20120;-73
2021/11/07 07:06:17;;;;;;;8.05;4.88;;;11.10;99.90;;;;;;4127112;28;20031;-73
2021/11/07 07:08:21;;;;;;;11.13;5.22;;;11.10;99.90;;;;;;4114467;28;20039;-73
2021/11/07 07:14:29;;;;;;;9.00;5.75;;;11.10;99.90;;;;;;4132405;28;20097;-73
2021/11/07 07:16:37;;;;;;;6.88;4.82;;;11.10;99.90;;;;;;4127923;28;20026;-73
2021/11/07 07:20:52;;;;;;;6.60;4.43;;;11.20;99.90;;;;;;4129670;28;20061;-73
2021/11/07 07:30:08;;;;;;;10.02;5.40;;;11.20;99.90;;;;;;4080934;29;20496;-71
2021/11/07 07:34:28;;;;;;;10.23;5.97;;;11.20;99.90;;;;;;4128396;28;20518;-72
2021/11/07 07:36:28;;;;;;;9.00;5.85;;;11.20;99.90;;;;;;4125236;28;20045;-71
2021/11/07 07:38:29;;;;;;;9.65;5.90;;;11.20;99.90;;;;;;4126045;28;20042;-72
2021/11/07 07:40:30;;;;;;;9.15;5.38;;;11.20;99.90;;;;;;4129109;28;20031;-72
2021/11/07 07:42:32;;;;;;;13.02;6.57;;;11.20;99.90;;;;;;4123910;28;20037;-72
2021/11/07 07:44:34;;;;;;;11.00;6.60;;;11.20;99.90;;;;;;4123495;28;20050;-72
2021/11/07 07:46:38;;;;;;;8.98;5.90;;;11.20;99.90;;;;;;4124880;28;20038;-72
2021/11/07 07:48:41;;;;;;;10.05;6.20;;;11.20;99.90;;;;;;4128778;28;20045;-72
2021/11/07 07:50:43;;;;;;;10.50;6.32;;;11.20;99.90;;;;;;4125603;28;20035;-71
2021/11/07 07:52:44;;;;;;;12.68;6.20;;;11.20;99.90;;;;;;4131014;28;20081;-71
2021/11/07 07:54:44;;;;;;;10.02;5.45;;;11.30;99.90;;;;;;4127824;28;20045;-71
2021/11/07 07:56:45;;;;;;;9.75;6.05;;;11.30;99.90;;;;;;4106280;28;20039;-71
2021/11/07 07:58:46;;;;;;;13.50;7.03;;;11.30;99.90;;;;;;4124077;28;20049;-72
2021/11/07 08:00:46;;;;;;;13.05;6.65;;;11.30;99.90;;;;;;4121606;28;20121;-71
2021/11/07 08:02:47;;;;;;;13.55;5.85;;;11.30;99.90;;;;;;4124311;28;20031;-71
2021/11/07 08:04:49;;;;;;;13.70;6.03;;;11.30;99.90;;;;;;4122318;28;20039;-71
2021/11/07 08:06:50;;;;;;;15.73;7.20;;;11.30;99.90;;;;;;4123415;28;20696;-72
2021/11/07 08:08:51;;;;;;;11.70;6.30;;;11.30;99.90;;;;;;4122251;28;20062;-71
2021/11/07 08:10:52;;;;;;;11.30;5.78;;;11.20;99.90;;;;;;4122866;28;20084;-72
2021/11/07 08:12:52;;;;;;;18.20;6.65;;;11.30;99.90;;;;;;4124455;28;20037;-71
2021/11/07 08:14:53;;;;;;;11.63;5.55;;;11.30;99.90;;;;;;4122344;28;20164;-71
2021/11/07 08:16:54;;;;;;;20.33;6.00;;;11.30;99.90;;;;;;4122451;28;20033;-72
2021/11/07 08:18:55;;;;;;;16.30;6.90;;;11.30;99.90;;;;;;4123274;28;20109;-71
2021/11/07 08:20:56;;;;;;;15.02;6.18;;;11.30;99.90;;;;;;4121969;28;20046;-71
2021/11/07 08:22:56;;;;;;;13.65;5.47;;;11.30;99.90;;;;;;4124220;28;20050;-71
2021/11/07 08:24:58;;;;;;;13.73;5.72;;;11.30;99.90;;;;;;4122046;28;20572;-71
2021/11/07 08:26:59;;;;;;;13.63;4.85;;;11.30;99.90;;;;;;4123848;28;20489;-72
2021/11/07 08:29:00;;;;;;;15.27;5.20;;;11.30;99.90;;;;;;4120294;28;20105;-71
2021/11/07 08:31:07;;;;;;;10.30;4.80;;;11.30;99.90;;;;;;4121881;28;20046;-72
2021/11/07 08:33:08;;;;;;;12.88;4.60;;;11.40;99.90;;;;;;4123047;28;20050;-72
2021/11/07 08:35:10;;;;;;;15.07;4.90;;;11.50;99.90;;;;;;4121713;28;20573;-71
2021/11/07 08:37:13;;;;;;;12.80;4.83;;;11.60;99.90;;;;;;4123116;28;20034;-72
2021/11/07 08:39:28;;;;;;;13.98;4.50;;;11.90;99.90;;;;;;4120192;28;20270;-71
2021/11/07 08:41:30;;;;;;;13.82;4.90;;;12.20;99.90;;;;;;4121811;28;20042;-71
2021/11/07 09:03:54;;;;;;;15.05;3.92;;;13.90;99.90;;;;;;4122449;28;20057;-72
2021/11/07 09:06:21;;;;;;;16.15;4.03;;;13.90;99.90;;;;;;4121359;28;20038;-72
2021/11/07 09:08:24;;;;;;;15.65;4.22;;;13.90;99.90;;;;;;4121141;28;20363;-71
2021/11/07 09:10:28;;;;;;;14.00;4.47;;;14.00;99.90;;;;;;4120193;28;20045;-69
2021/11/07 09:12:29;;;;;;;10.85;3.30;;;13.90;99.90;;;;;;4119177;28;20030;-69
2021/11/07 09:14:37;;;;;;;13.93;3.90;;;13.90;99.90;;;;;;4120284;28;20138;-69
2021/11/07 09:16:38;;;;;;;14.65;3.75;;;13.80;99.90;;;;;;4118336;28;20129;-69
2021/11/07 09:18:40;;;;;;;17.60;4.15;;;13.80;99.90;;;;;;4121825;28;20120;-69
2021/11/07 09:21:03;;;;;;;14.75;4.00;;;13.70;99.90;;;;;;4120405;28;20065;-69
2021/11/07 09:25:22;;;;;;;15.98;3.85;;;13.60;99.90;;;;;;4121472;28;20026;-69
2021/11/07 09:27:28;;;;;;;14.75;4.22;;;13.60;99.90;;;;;;4119166;28;20039;-69
2021/11/07 09:29:44;;;;;;;21.40;4.10;;;13.40;99.90;;;;;;4120832;28;20027;-71
2021/11/07 09:32:09;;;;;;;15.48;4.10;;;13.40;99.90;;;;;;4122368;28;20037;-69
2021/11/07 09:34:19;;;;;;;14.13;3.50;;;13.20;99.90;;;;;;4125870;28;20042;-70
2021/11/07 09:37:24;;;;;;;18.23;3.85;;;13.20;99.90;;;;;;4126756;28;20058;-70
2021/11/07 09:38:58;;;;;;;14.80;4.00;;;13.10;99.90;;;;;;4109564;28;20035;-72
2021/11/07 09:43:16;;;;;;;21.35;3.75;;;13.00;99.90;;;;;;4125858;28;20119;-72
2021/11/07 09:47:22;;;;;;;17.15;4.00;;;12.90;99.90;;;;;;4125473;28;20025;-73
2021/11/07 09:49:32;;;;;;;11.10;3.60;;;12.90;99.90;;;;;;4125975;28;20403;-72
2021/11/07 09:51:35;;;;;;;14.43;3.85;;;12.90;99.90;;;;;;4123735;28;20038;-72
2021/11/07 09:53:38;;;;;;;9.80;3.25;;;12.80;99.90;;;;;;4125338;28;20049;-72
2021/11/07 09:55:40;;;;;;;19.95;3.60;;;12.70;99.90;;;;;;4126452;28;20628;-69
2021/11/07 09:57:41;;;;;;;15.43;4.10;;;12.80;99.90;;;;;;4124332;28;20034;-70
2021/11/07 09:59:43;;;;;;;13.35;3.65;;;12.70;99.90;;;;;;4126126;28;20113;-70
2021/11/07 10:01:44;;;;;;;13.30;3.67;;;12.70;99.90;;;;;;4126102;28;20068;-70
2021/11/07 10:03:45;;;;;;;11.95;3.17;;;12.60;99.90;;;;;;4126197;28;20053;-70
2021/11/07 10:05:50;;;;;;;14.02;3.80;;;12.60;99.90;;;;;;4124340;28;20098;-72
2021/11/07 10:07:57;;;;;;;19.15;3.72;;;12.60;99.90;;;;;;4133110;28;20104;-70
2021/11/07 10:10:02;;;;;;;13.05;3.25;;;12.60;99.90;;;;;;4131202;28;20030;-70
2021/11/07 10:12:20;;;;;;;16.60;3.63;;;12.60;99.90;;;;;;4122235;28;20037;-70
2021/11/07 10:14:21;;;;;;;14.30;3.58;;;12.60;99.90;;;;;;4125770;28;20041;-70
2021/11/07 10:16:34;;;;;;;15.68;3.72;;;12.70;99.90;;;;;;4124986;28;21929;-70
2021/11/07 10:19:00;;;;;;;;;;;12.60;99.90;;;;;;4124667;28;20018;-70
2021/11/07 10:21:21;;;;;;;11.30;3.28;;;12.60;99.90;;;;;;4138128;28;20380;-71
2021/11/07 10:23:31;;;;;;;15.02;3.60;;;12.60;99.90;;;;;;4121458;28;20062;-70
2021/11/07 10:25:44;;;;;;;14.48;3.50;;;12.50;99.90;;;;;;4121906;28;20038;-70
2021/11/07 10:27:49;;;;;;;17.13;3.88;;;12.50;99.90;;;;;;4124943;28;20050;-70
2021/11/07 10:29:52;;;;;;;14.63;3.92;;;12.50;99.90;;;;;;4125072;28;20030;-70
2021/11/07 10:32:04;;;;;;;11.95;2.88;;;12.50;99.90;;;;;;4126230;28;20039;-70
2021/11/07 10:39:17;;;;;;;11.93;3.33;;;12.50;99.90;;;;;;4126640;28;20038;-70
2021/11/07 10:41:53;;;;;;;17.45;3.67;;;12.40;99.90;;;;;;4125895;28;20113;-70
2021/11/07 10:46:57;;;;;;;22.27;3.65;;;12.30;99.90;;;;;;4123662;28;20034;-70
2021/11/07 10:53:43;;;;;;;16.95;3.03;;;12.40;99.90;;;;;;4126076;28;20125;-70
2021/11/07 10:55:47;;;;;;;20.58;3.85;;;12.40;99.90;;;;;;4108879;28;20451;-70
2021/11/07 10:57:51;;;;;;;16.83;3.58;;;12.50;99.90;;;;;;4128384;28;20047;-70
2021/11/07 11:00:12;;;;;;;13.02;3.60;;;12.50;99.90;;;;;;4126037;28;20034;-70
2021/11/07 11:02:48;;;;;;;17.67;3.42;;;12.50;99.90;;;;;;4124008;28;20080;-70
2021/11/07 11:05:08;;;;;;;19.45;3.65;;;12.60;99.90;;;;;;4127094;28;20057;-70
2021/11/07 11:07:12;;;;;;;13.82;3.15;;;12.70;99.90;;;;;;4131313;28;20068;-70
2021/11/07 11:09:19;;;;;;;11.93;3.83;;;12.70;99.90;;;;;;4127572;28;20122;-72
2021/11/07 11:11:28;;;;;;;15.32;3.28;;;12.70;99.90;;;;;;4128241;28;20121;-70
2021/11/07 11:13:46;;;;;;;16.30;4.28;;;12.70;99.90;;;;;;4110915;28;20030;-70
2021/11/07 11:18:33;;;;;;;14.65;4.13;;;12.70;99.90;;;;;;4124994;28;20093;-73
2021/11/07 11:20:53;;;;;;;13.85;3.33;;;12.70;99.90;;;;;;4125765;28;20401;-70
2021/11/07 11:23:21;;;;;;;19.15;3.85;;;12.70;99.90;;;;;;4126935;28;20057;-70
2021/11/07 11:30:30;;;;;;;18.83;4.38;;;12.80;99.90;;;;;;4127242;28;20035;-70
2021/11/07 11:34:37;;;;;;;16.20;3.25;;;12.70;99.90;;;;;;4097488;28;20106;-70
2021/11/07 11:36:46;;;;;;;21.42;4.30;;;12.60;99.90;;;;;;4123200;28;20694;-70
2021/11/07 11:38:53;;;;;;;13.52;3.38;;;12.60;99.90;;;;;;4125432;28;20030;-70
2021/11/07 11:43:13;;;;;;;14.77;3.78;;;12.50;99.90;;;;;;4125036;28;20030;-70
2021/11/07 11:45:23;;;;;;;19.10;3.92;;;12.50;99.90;;;;;;4121327;28;20030;-70
2021/11/07 11:50:04;;;;;;;12.60;3.05;;;12.40;99.90;;;;;;4123765;28;20038;-70
2021/11/07 11:52:16;;;;;;;16.85;3.80;;;12.40;99.90;;;;;;4122883;28;20038;-70
2021/11/07 11:59:34;;;;;;;18.45;3.92;;;12.30;99.90;;;;;;4125324;28;20034;-70
2021/11/07 12:01:39;;;;;;;11.98;3.17;;;12.40;99.90;;;;;;4124799;28;20027;-70
2021/11/07 12:06:27;;;;;;;11.38;3.33;;;12.40;99.90;;;;;;4127390;28;20033;-70
2021/11/07 12:08:35;;;;;;;19.35;4.07;;;12.40;99.90;;;;;;4125391;28;20057;-70
2021/11/07 12:10:44;;;;;;;17.23;3.83;;;12.40;99.90;;;;;;4123237;28;20068;-71
2021/11/07 12:15:26;;;;;;;16.70;3.15;;;12.40;99.90;;;;;;4121895;28;20034;-71
2021/11/07 12:17:32;;;;;;;18.63;4.07;;;12.40;99.90;;;;;;4127160;28;20049;-72
2021/11/07 12:19:41;;;;;;;15.02;3.83;;;12.40;99.90;;;;;;4129900;28;20038;-71
2021/11/07 12:21:51;;;;;;;14.80;3.00;;;12.40;99.90;;;;;;4122034;28;20090;-69
2021/11/07 12:24:08;;;;;;;13.63;3.47;;;12.40;99.90;;;;;;4127842;28;20580;-70
2021/11/07 12:26:26;;;;;;;16.27;3.13;;;12.40;99.90;;;;;;4126586;28;20056;-70
2021/11/07 12:28:46;;;;;;;16.60;3.65;;;12.40;99.90;;;;;;4129269;28;20046;-71
2021/11/07 12:31:02;;;;;;;14.35;3.05;;;12.40;99.90;;;;;;4127119;28;20034;-70
2021/11/07 12:33:21;;;;;;;18.60;3.97;;;12.40;99.90;;;;;;4128326;28;20439;-70
2021/11/07 12:35:33;;;;;;;16.15;3.03;;;12.40;99.90;;;;;;4127744;28;20066;-71
2021/11/07 12:42:17;;;;;;;19.30;4.25;;;12.30;99.90;;;;;;4124129;28;20034;-71
2021/11/07 12:44:26;;;;;;;15.32;3.72;;;12.40;99.90;;;;;;4128996;28;20076;-70